createdAt,value
2018-03-15T00:00:07.907Z,62.97
2018-03-15T00:01:07.927Z,62.97
2018-03-15T00:02:07.946Z,62.97
2018-03-15T00:03:07.958Z,62.59
2018-03-15T00:04:07.978Z,62.97
2018-03-15T00:05:08.002Z,62.12
2018-03-15T00:06:08.015Z,61.83
2018-03-15T00:07:08.035Z,61.67
2018-03-15T00:08:08.049Z,61.93
2018-03-15T00:09:08.067Z,61.93
2018-03-15T00:10:08.087Z,61.74
2018-03-15T00:11:08.105Z,62.21
2018-03-15T00:12:08.120Z,61.74
2018-03-15T00:13:08.139Z,61.83
2018-03-15T00:14:08.152Z,62.12
2018-03-15T00:15:08.174Z,61.64
2018-03-15T00:16:08.198Z,62.21
2018-03-15T00:17:08.208Z,62.69
2018-03-15T00:18:08.226Z,62.88
2018-03-15T00:19:08.245Z,62.21
2018-03-15T00:20:08.274Z,62.21
2018-03-15T00:21:08.304Z,61.74
2018-03-15T00:22:08.297Z,61.83
2018-03-15T00:23:08.314Z,61.74
2018-03-15T00:24:08.343Z,61.77
2018-03-15T00:25:08.445Z,61.74
2018-03-15T00:26:08.377Z,63.26
2018-03-15T00:27:08.384Z,63.07
2018-03-15T00:28:08.399Z,62.88
2018-03-15T00:29:08.424Z,63.32
2018-03-15T00:30:08.438Z,63.35
2018-03-15T00:31:08.480Z,62.78
2018-03-15T00:32:08.468Z,63.35
2018-03-15T00:33:08.496Z,63.64
2018-03-15T00:34:08.517Z,63.17
2018-03-15T00:35:08.526Z,62.97
2018-03-15T00:36:08.545Z,62.40
2018-03-15T00:37:08.559Z,62.40
2018-03-15T00:38:08.587Z,62.12
2018-03-15T00:39:08.595Z,62.59
2018-03-15T00:40:08.618Z,62.69
2018-03-15T00:41:08.629Z,62.21
2018-03-15T00:42:08.648Z,62.97
2018-03-15T00:43:08.666Z,62.59
2018-03-15T00:44:08.684Z,62.59
2018-03-15T00:45:08.723Z,63.13
2018-03-15T00:46:08.716Z,64.27
2018-03-15T00:47:08.732Z,64.11
2018-03-15T00:48:08.755Z,63.54
2018-03-15T00:49:08.770Z,63.13
2018-03-15T00:50:08.786Z,63.42
2018-03-15T00:51:08.820Z,63.99
2018-03-15T00:52:08.822Z,63.51
2018-03-15T00:53:08.838Z,64.08
2018-03-15T00:54:08.857Z,63.60
2018-03-15T00:55:08.872Z,63.26
2018-03-15T00:56:08.894Z,63.79
2018-03-15T00:57:08.908Z,64.27
2018-03-15T00:58:08.926Z,64.18
2018-03-15T00:59:08.951Z,63.51
2018-03-15T01:00:08.962Z,63.89
2018-03-15T01:01:08.979Z,63.35
2018-03-15T01:02:08.995Z,63.32
2018-03-15T01:03:09.018Z,63.60
2018-03-15T01:04:09.036Z,63.60
2018-03-15T01:05:09.054Z,64.18
2018-03-15T01:06:09.065Z,64.08
2018-03-15T01:07:09.089Z,63.83
2018-03-15T01:08:09.101Z,63.07
2018-03-15T01:09:09.122Z,62.12
2018-03-15T01:10:09.135Z,62.59
2018-03-15T01:11:09.154Z,63.26
2018-03-15T01:12:09.169Z,63.42
2018-03-15T01:13:09.199Z,63.92
2018-03-15T01:14:09.205Z,62.88
2018-03-15T01:15:09.246Z,62.88
2018-03-15T01:16:09.248Z,63.07
2018-03-15T01:17:09.262Z,63.60
2018-03-15T01:18:09.283Z,63.51
2018-03-15T01:19:09.294Z,63.89
2018-03-15T01:20:09.318Z,63.99
2018-03-15T01:21:09.329Z,64.08
2018-03-15T01:22:09.346Z,63.32
2018-03-15T01:23:09.369Z,62.94
2018-03-15T01:24:09.409Z,62.94
2018-03-15T01:25:09.398Z,63.51
2018-03-15T01:26:09.419Z,63.51
2018-03-15T01:27:09.430Z,63.89
2018-03-15T01:28:09.472Z,63.23
2018-03-15T01:29:09.467Z,62.85
2018-03-15T01:30:09.486Z,63.79
2018-03-15T01:31:09.501Z,63.70
2018-03-15T01:32:09.526Z,63.89
2018-03-15T01:33:09.538Z,63.89
2018-03-15T01:34:09.553Z,63.70
2018-03-15T01:35:09.569Z,64.08
2018-03-15T01:36:09.588Z,63.70
2018-03-15T01:37:09.605Z,63.13
2018-03-15T01:38:09.624Z,63.79
2018-03-15T01:39:09.644Z,63.70
2018-03-15T01:40:09.659Z,63.23
2018-03-15T01:41:09.676Z,63.89
2018-03-15T01:42:09.697Z,63.79
2018-03-15T01:43:09.708Z,63.60
2018-03-15T01:44:09.728Z,64.18
2018-03-15T01:45:09.748Z,63.70
2018-03-15T01:46:09.759Z,63.42
2018-03-15T01:47:09.834Z,63.42
2018-03-15T01:48:09.796Z,64.18
2018-03-15T01:49:09.812Z,64.18
2018-03-15T01:50:09.831Z,63.89
2018-03-15T01:51:09.844Z,63.89
2018-03-15T01:52:09.866Z,63.51
2018-03-15T01:53:09.880Z,63.42
2018-03-15T01:54:09.898Z,63.60
2018-03-15T01:55:09.915Z,63.70
2018-03-15T01:56:09.934Z,63.42
2018-03-15T01:57:09.955Z,64.27
2018-03-15T01:58:09.968Z,63.70
2018-03-15T01:59:09.983Z,63.42
2018-03-15T02:00:10.007Z,63.13
2018-03-15T02:01:10.022Z,63.60
2018-03-15T02:02:10.035Z,64.27
2018-03-15T02:03:10.060Z,63.89
2018-03-15T02:04:10.069Z,63.89
2018-03-15T02:05:10.088Z,63.99
2018-03-15T02:06:10.108Z,63.79
2018-03-15T02:07:10.124Z,63.79
2018-03-15T02:08:10.140Z,64.46
2018-03-15T02:09:10.159Z,64.46
2018-03-15T02:10:10.172Z,64.37
2018-03-15T02:11:10.192Z,64.56
2018-03-15T02:12:10.211Z,64.43
2018-03-15T02:13:10.225Z,64.65
2018-03-15T02:14:10.241Z,64.75
2018-03-15T02:15:10.260Z,64.84
2018-03-15T02:16:10.278Z,64.62
2018-03-15T02:17:10.293Z,65.03
2018-03-15T02:18:10.310Z,64.56
2018-03-15T02:19:10.329Z,64.56
2018-03-15T02:20:10.343Z,64.37
2018-03-15T02:21:10.358Z,65.09
2018-03-15T02:22:10.399Z,64.84
2018-03-15T02:23:10.394Z,64.43
2018-03-15T02:24:10.412Z,65.13
2018-03-15T02:25:10.433Z,65.28
2018-03-15T02:26:10.446Z,65.38
2018-03-15T02:27:10.464Z,64.94
2018-03-15T02:28:10.485Z,65.09
2018-03-15T02:29:10.498Z,65.38
2018-03-15T02:30:10.513Z,65.86
2018-03-15T02:31:10.531Z,66.52
2018-03-15T02:32:10.560Z,66.42
2018-03-15T02:33:10.573Z,66.24
2018-03-15T02:34:10.579Z,65.60
2018-03-15T02:35:10.601Z,65.67
2018-03-15T02:36:10.617Z,66.24
2018-03-15T02:37:10.638Z,66.05
2018-03-15T02:38:10.659Z,66.52
2018-03-15T02:39:10.671Z,65.57
2018-03-15T02:40:10.689Z,65.41
2018-03-15T02:41:10.708Z,65.13
2018-03-15T02:42:10.732Z,65.38
2018-03-15T02:43:10.734Z,65.51
2018-03-15T02:44:10.750Z,65.22
2018-03-15T02:45:10.774Z,66.14
2018-03-15T02:46:10.784Z,66.80
2018-03-15T02:47:10.803Z,65.70
2018-03-15T02:48:10.847Z,65.67
2018-03-15T02:49:10.840Z,65.86
2018-03-15T02:50:10.857Z,65.86
2018-03-15T02:51:10.876Z,66.05
2018-03-15T02:52:10.897Z,65.86
2018-03-15T02:53:10.907Z,65.32
2018-03-15T02:54:10.920Z,65.28
2018-03-15T02:55:10.940Z,66.71
2018-03-15T02:56:10.965Z,67.38
2018-03-15T02:57:10.975Z,66.90
2018-03-15T02:58:10.991Z,66.71
2018-03-15T02:59:11.009Z,65.89
2018-03-15T03:00:11.026Z,65.76
2018-03-15T03:01:11.051Z,66.52
2018-03-15T03:02:11.058Z,66.14
2018-03-15T03:03:11.080Z,66.08
2018-03-15T03:04:11.092Z,65.89
2018-03-15T03:05:11.113Z,66.27
2018-03-15T03:06:11.131Z,66.52
2018-03-15T03:07:11.147Z,67.09
2018-03-15T03:08:11.161Z,67.19
2018-03-15T03:09:11.188Z,66.46
2018-03-15T03:10:11.200Z,65.80
2018-03-15T03:11:11.237Z,65.32
2018-03-15T03:12:11.234Z,65.60
2018-03-15T03:13:11.248Z,65.70
2018-03-15T03:14:11.260Z,65.80
2018-03-15T03:15:11.275Z,65.70
2018-03-15T03:16:11.297Z,65.32
2018-03-15T03:17:11.318Z,65.89
2018-03-15T03:18:11.329Z,65.70
2018-03-15T03:19:11.347Z,66.08
2018-03-15T03:20:11.363Z,66.80
2018-03-15T03:21:11.387Z,67.00
2018-03-15T03:22:11.405Z,67.09
2018-03-15T03:23:11.447Z,66.90
2018-03-15T03:24:11.432Z,66.65
2018-03-15T03:25:11.450Z,66.17
2018-03-15T03:26:11.465Z,65.76
2018-03-15T03:27:11.481Z,66.36
2018-03-15T03:28:11.552Z,65.70
2018-03-15T03:29:11.515Z,66.80
2018-03-15T03:30:11.536Z,67.38
2018-03-15T03:31:11.550Z,68.42
2018-03-15T03:32:11.568Z,67.38
2018-03-15T03:33:11.586Z,67.76
2018-03-15T03:34:11.599Z,68.13
2018-03-15T03:35:11.618Z,68.52
2018-03-15T03:36:11.646Z,67.85
2018-03-15T03:37:11.652Z,67.50
2018-03-15T03:38:11.668Z,67.47
2018-03-15T03:39:11.695Z,67.28
2018-03-15T03:40:11.709Z,67.22
2018-03-15T03:41:11.724Z,67.32
2018-03-15T03:42:11.733Z,68.04
2018-03-15T03:43:11.751Z,68.23
2018-03-15T03:44:11.770Z,68.23
2018-03-15T03:45:11.787Z,67.85
2018-03-15T03:46:11.805Z,68.71
2018-03-15T03:47:11.820Z,69.46
2018-03-15T03:48:11.844Z,69.56
2018-03-15T03:49:11.853Z,69.56
2018-03-15T03:50:11.867Z,69.66
2018-03-15T03:51:11.889Z,69.56
2018-03-15T03:52:11.961Z,69.66
2018-03-15T03:53:11.921Z,68.99
2018-03-15T03:54:11.940Z,69.46
2018-03-15T03:55:11.954Z,69.75
2018-03-15T03:56:11.974Z,69.56
2018-03-15T03:57:11.989Z,69.18
2018-03-15T03:58:12.008Z,68.80
2018-03-15T03:59:12.018Z,69.75
2018-03-15T04:00:12.040Z,69.37
2018-03-15T04:01:12.066Z,70.61
2018-03-15T04:02:12.094Z,70.42
2018-03-15T04:03:12.090Z,69.56
2018-03-15T04:04:12.109Z,69.94
2018-03-15T04:05:12.126Z,70.04
2018-03-15T04:06:12.145Z,69.75
2018-03-15T04:07:12.167Z,69.37
2018-03-15T04:08:12.186Z,69.18
2018-03-15T04:09:12.198Z,68.61
2018-03-15T04:10:12.212Z,68.71
2018-03-15T04:11:12.226Z,69.18
2018-03-15T04:12:12.241Z,68.90
2018-03-15T04:13:12.261Z,69.09
2018-03-15T04:14:12.275Z,69.37
2018-03-15T04:15:12.294Z,69.18
2018-03-15T04:16:12.309Z,68.46
2018-03-15T04:17:12.328Z,68.42
2018-03-15T04:18:12.342Z,69.09
2018-03-15T04:19:12.360Z,70.23
2018-03-15T04:20:12.379Z,69.94
2018-03-15T04:21:12.398Z,69.56
2018-03-15T04:22:12.407Z,69.27
2018-03-15T04:23:12.425Z,68.99
2018-03-15T04:24:12.510Z,69.37
2018-03-15T04:25:12.470Z,69.56
2018-03-15T04:26:12.557Z,69.75
2018-03-15T04:27:12.615Z,69.85
2018-03-15T04:28:12.558Z,69.75
2018-03-15T04:29:12.527Z,69.56
2018-03-15T04:30:12.561Z,69.85
2018-03-15T04:31:12.577Z,69.37
2018-03-15T04:32:12.583Z,68.99
2018-03-15T04:33:12.600Z,70.70
2018-03-15T04:34:12.628Z,70.70
2018-03-15T04:35:12.629Z,70.99
2018-03-15T04:36:12.644Z,70.79
2018-03-15T04:37:12.670Z,70.42
2018-03-15T04:38:12.679Z,69.66
2018-03-15T04:39:12.701Z,70.79
2018-03-15T04:40:12.714Z,70.95
2018-03-15T04:41:12.726Z,70.89
2018-03-15T04:42:12.745Z,70.04
2018-03-15T04:43:12.766Z,70.04
2018-03-15T04:44:12.783Z,71.71
2018-03-15T04:45:12.801Z,71.56
2018-03-15T04:46:12.817Z,70.79
2018-03-15T04:47:12.835Z,71.43
2018-03-15T04:48:12.847Z,71.37
2018-03-15T04:49:12.860Z,71.37
2018-03-15T04:50:12.879Z,72.13
2018-03-15T04:51:12.901Z,71.71
2018-03-15T04:52:12.913Z,73.23
2018-03-15T04:53:12.929Z,72.32
2018-03-15T04:54:12.947Z,71.18
2018-03-15T04:55:12.971Z,71.37
2018-03-15T04:56:12.986Z,70.70
2018-03-15T04:57:12.996Z,70.61
2018-03-15T04:58:13.016Z,70.79
2018-03-15T04:59:13.028Z,71.56
2018-03-15T05:00:13.043Z,72.44
2018-03-15T05:01:13.059Z,72.95
2018-03-15T05:02:13.092Z,71.84
2018-03-15T05:03:13.095Z,71.27
2018-03-15T05:04:13.110Z,70.89
2018-03-15T05:05:13.126Z,70.23
2018-03-15T05:06:13.142Z,73.04
2018-03-15T05:07:13.160Z,73.61
2018-03-15T05:08:13.177Z,72.89
2018-03-15T05:09:13.210Z,71.27
2018-03-15T05:10:13.206Z,71.90
2018-03-15T05:11:13.222Z,72.47
2018-03-15T05:12:13.248Z,71.84
2018-03-15T05:13:13.256Z,71.46
2018-03-15T05:14:13.274Z,70.79
2018-03-15T05:15:13.306Z,70.13
2018-03-15T05:16:13.307Z,70.95
2018-03-15T05:17:13.321Z,72.51
2018-03-15T05:18:13.347Z,70.89
2018-03-15T05:19:13.354Z,70.51
2018-03-15T05:20:13.380Z,71.46
2018-03-15T05:21:13.387Z,71.75
2018-03-15T05:22:13.403Z,71.90
2018-03-15T05:23:13.420Z,73.04
2018-03-15T05:24:13.441Z,72.95
2018-03-15T05:25:13.497Z,73.23
2018-03-15T05:26:13.474Z,73.33
2018-03-15T05:27:13.487Z,73.71
2018-03-15T05:28:13.507Z,74.56
2018-03-15T05:29:13.521Z,73.61
2018-03-15T05:30:13.533Z,73.42
2018-03-15T05:31:13.596Z,73.23
2018-03-15T05:32:13.573Z,73.04
2018-03-15T05:33:13.588Z,73.99
2018-03-15T05:34:13.606Z,73.42
2018-03-15T05:35:13.619Z,72.85
2018-03-15T05:36:13.640Z,73.71
2018-03-15T05:37:13.666Z,73.42
2018-03-15T05:38:13.668Z,73.42
2018-03-15T05:39:13.685Z,73.33
2018-03-15T05:40:13.702Z,73.80
2018-03-15T05:41:13.719Z,73.42
2018-03-15T05:42:13.740Z,73.71
2018-03-15T05:43:13.751Z,73.33
2018-03-15T05:44:13.769Z,72.89
2018-03-15T05:45:13.786Z,72.13
2018-03-15T05:46:13.805Z,72.51
2018-03-15T05:47:13.821Z,72.75
2018-03-15T05:48:13.837Z,72.85
2018-03-15T05:49:13.854Z,73.04
2018-03-15T05:50:13.873Z,73.42
2018-03-15T05:51:13.909Z,73.61
2018-03-15T05:52:13.907Z,73.90
2018-03-15T05:53:13.933Z,73.80
2018-03-15T05:54:13.935Z,73.80
2018-03-15T05:55:13.953Z,73.61
2018-03-15T05:56:13.972Z,73.42
2018-03-15T05:57:13.987Z,73.42
2018-03-15T05:58:14.001Z,73.42
2018-03-15T05:59:14.019Z,73.61
2018-03-15T06:00:14.039Z,74.27
2018-03-15T06:01:14.055Z,72.79
2018-03-15T06:02:14.075Z,72.56
2018-03-15T06:03:14.087Z,72.41
2018-03-15T06:04:14.106Z,72.75
2018-03-15T06:05:14.130Z,73.42
2018-03-15T06:06:14.144Z,72.95
2018-03-15T06:07:14.163Z,73.42
2018-03-15T06:08:14.172Z,73.71
2018-03-15T06:09:14.189Z,74.47
2018-03-15T06:10:14.205Z,74.18
2018-03-15T06:11:14.231Z,74.37
2018-03-15T06:12:14.246Z,74.08
2018-03-15T06:13:14.256Z,73.99
2018-03-15T06:14:14.279Z,73.80
2018-03-15T06:15:14.291Z,72.95
2018-03-15T06:16:14.309Z,72.89
2018-03-15T06:17:14.323Z,72.79
2018-03-15T06:18:14.345Z,73.42
2018-03-15T06:19:14.363Z,73.14
2018-03-15T06:20:14.402Z,73.33
2018-03-15T06:21:14.397Z,73.33
2018-03-15T06:22:14.412Z,73.61
2018-03-15T06:23:14.424Z,73.33
2018-03-15T06:24:14.445Z,73.14
2018-03-15T06:25:14.492Z,73.18
2018-03-15T06:26:14.482Z,72.99
2018-03-15T06:27:14.493Z,72.95
2018-03-15T06:28:14.531Z,72.95
2018-03-15T06:29:14.543Z,72.66
2018-03-15T06:30:14.548Z,73.42
2018-03-15T06:31:14.563Z,72.99
2018-03-15T06:32:14.577Z,72.95
2018-03-15T06:33:14.595Z,73.27
2018-03-15T06:34:14.621Z,71.84
2018-03-15T06:35:14.638Z,71.56
2018-03-15T06:36:14.649Z,71.66
2018-03-15T06:37:14.674Z,71.81
2018-03-15T06:38:14.677Z,72.66
2018-03-15T06:39:14.696Z,72.99
2018-03-15T06:40:14.730Z,73.46
2018-03-15T06:41:14.733Z,72.03
2018-03-15T06:42:14.751Z,72.51
2018-03-15T06:43:14.767Z,72.22
2018-03-15T06:44:14.791Z,72.70
2018-03-15T06:45:14.802Z,73.23
2018-03-15T06:46:14.825Z,73.90
2018-03-15T06:47:14.844Z,73.33
2018-03-15T06:48:14.854Z,73.52
2018-03-15T06:49:14.865Z,73.42
2018-03-15T06:50:14.899Z,72.79
2018-03-15T06:51:14.910Z,73.08
2018-03-15T06:52:14.926Z,73.18
2018-03-15T06:53:14.938Z,73.08
2018-03-15T06:54:14.960Z,73.18
2018-03-15T06:55:14.984Z,72.03
2018-03-15T06:56:14.989Z,72.03
2018-03-15T06:57:15.015Z,73.46
2018-03-15T06:58:15.021Z,72.79
2018-03-15T06:59:15.038Z,72.41
2018-03-15T07:00:15.062Z,72.99
2018-03-15T07:01:15.080Z,73.08
2018-03-15T07:02:15.094Z,72.89
2018-03-15T07:03:15.119Z,72.89
2018-03-15T07:04:15.125Z,72.22
2018-03-15T07:05:15.144Z,71.18
2018-03-15T07:06:15.163Z,71.46
2018-03-15T07:07:15.182Z,71.27
2018-03-15T07:08:15.193Z,71.27
2018-03-15T07:09:15.209Z,71.84
2018-03-15T07:10:15.229Z,72.70
2018-03-15T07:11:15.245Z,72.70
2018-03-15T07:12:15.265Z,72.03
2018-03-15T07:13:15.280Z,72.89
2018-03-15T07:14:15.299Z,72.32
2018-03-15T07:15:15.314Z,71.27
2018-03-15T07:16:15.348Z,71.37
2018-03-15T07:17:15.358Z,70.79
2018-03-15T07:18:15.366Z,70.70
2018-03-15T07:19:15.379Z,70.79
2018-03-15T07:20:15.406Z,71.56
2018-03-15T07:21:15.416Z,70.70
2018-03-15T07:22:15.433Z,70.07
2018-03-15T07:23:15.450Z,69.69
2018-03-15T07:24:15.477Z,68.93
2018-03-15T07:25:15.485Z,69.12
2018-03-15T07:26:15.502Z,69.98
2018-03-15T07:27:15.525Z,69.21
2018-03-15T07:28:15.540Z,68.65
2018-03-15T07:29:15.553Z,68.93
2018-03-15T07:30:15.578Z,68.65
2018-03-15T07:31:15.593Z,68.36
2018-03-15T07:32:15.608Z,68.55
2018-03-15T07:33:15.630Z,68.07
2018-03-15T07:34:15.643Z,68.17
2018-03-15T07:35:15.660Z,67.98
2018-03-15T07:36:15.678Z,68.93
2018-03-15T07:37:15.701Z,68.55
2018-03-15T07:38:15.715Z,69.75
2018-03-15T07:39:15.731Z,70.36
2018-03-15T07:40:15.747Z,69.60
2018-03-15T07:41:15.775Z,69.69
2018-03-15T07:42:15.782Z,69.21
2018-03-15T07:43:15.804Z,68.96
2018-03-15T07:44:15.817Z,68.21
2018-03-15T07:45:15.835Z,68.17
2018-03-15T07:46:15.865Z,68.74
2018-03-15T07:47:15.875Z,69.02
2018-03-15T07:48:15.894Z,69.50
2018-03-15T07:49:15.904Z,69.06
2018-03-15T07:50:15.924Z,68.40
2018-03-15T07:51:15.944Z,67.98
2018-03-15T07:52:15.970Z,68.36
2018-03-15T07:53:15.979Z,67.35
2018-03-15T07:54:16.009Z,67.07
2018-03-15T07:55:16.014Z,67.50
2018-03-15T07:56:16.025Z,67.54
2018-03-15T07:57:16.058Z,67.16
2018-03-15T07:58:16.062Z,67.16
2018-03-15T07:59:16.082Z,67.35
2018-03-15T08:00:16.098Z,67.32
2018-03-15T08:01:16.122Z,67.98
2018-03-15T08:02:16.151Z,66.97
2018-03-15T08:03:16.154Z,66.68
2018-03-15T08:04:16.170Z,67.69
2018-03-15T08:05:16.188Z,67.16
2018-03-15T08:06:16.212Z,66.27
2018-03-15T08:07:16.227Z,66.39
2018-03-15T08:08:16.243Z,66.59
2018-03-15T08:09:16.261Z,66.97
2018-03-15T08:10:16.273Z,66.78
2018-03-15T08:11:16.297Z,65.73
2018-03-15T08:12:16.313Z,66.65
2018-03-15T08:13:16.329Z,67.16
2018-03-15T08:14:16.349Z,66.39
2018-03-15T08:15:16.365Z,66.20
2018-03-15T08:16:16.384Z,65.00
2018-03-15T08:17:16.405Z,65.38
2018-03-15T08:18:16.418Z,65.35
2018-03-15T08:19:16.438Z,66.20
2018-03-15T08:20:16.456Z,65.58
2018-03-15T08:21:16.473Z,65.38
2018-03-15T08:22:16.489Z,64.62
2018-03-15T08:23:16.505Z,64.87
2018-03-15T08:24:16.539Z,65.29
2018-03-15T08:25:16.546Z,65.00
2018-03-15T08:26:16.565Z,65.41
2018-03-15T08:27:16.580Z,65.83
2018-03-15T08:28:16.596Z,66.27
2018-03-15T08:29:16.615Z,66.30
2018-03-15T08:30:16.632Z,65.73
2018-03-15T08:31:16.665Z,65.83
2018-03-15T08:32:16.667Z,65.16
2018-03-15T08:33:16.703Z,64.72
2018-03-15T08:34:16.702Z,64.24
2018-03-15T08:35:16.720Z,64.24
2018-03-15T08:36:16.741Z,63.96
2018-03-15T08:37:16.755Z,63.67
2018-03-15T08:38:16.776Z,64.15
2018-03-15T08:39:16.794Z,64.34
2018-03-15T08:40:16.813Z,64.24
2018-03-15T08:41:16.828Z,64.24
2018-03-15T08:42:16.855Z,63.76
2018-03-15T08:43:16.874Z,62.85
2018-03-15T08:44:16.887Z,62.75
2018-03-15T08:45:16.900Z,63.20
2018-03-15T08:46:16.984Z,63.67
2018-03-15T08:47:16.939Z,64.15
2018-03-15T08:48:16.958Z,64.34
2018-03-15T08:49:16.976Z,64.62
2018-03-15T08:50:17.024Z,64.05
2018-03-15T08:51:17.028Z,63.42
2018-03-15T08:52:17.056Z,63.01
2018-03-15T08:53:17.047Z,63.96
2018-03-15T08:54:17.072Z,63.48
2018-03-15T08:55:17.089Z,63.96
2018-03-15T08:56:17.116Z,64.43
2018-03-15T08:57:17.124Z,64.15
2018-03-15T08:58:17.174Z,64.24
2018-03-15T08:59:17.156Z,63.20
2018-03-15T09:00:17.238Z,63.57
2018-03-15T09:01:17.193Z,63.57
2018-03-15T09:02:17.211Z,62.85
2018-03-15T09:03:17.226Z,62.18
2018-03-15T09:04:17.246Z,62.24
2018-03-15T09:05:17.270Z,62.37
2018-03-15T09:06:17.284Z,61.61
2018-03-15T09:07:17.302Z,61.90
2018-03-15T09:08:17.324Z,61.42
2018-03-15T09:09:17.383Z,61.07
2018-03-15T09:10:17.379Z,60.85
2018-03-15T09:11:17.381Z,61.70
2018-03-15T09:12:17.396Z,60.94
2018-03-15T09:13:17.411Z,61.70
2018-03-15T09:14:17.434Z,61.90
2018-03-15T09:15:17.455Z,60.88
2018-03-15T09:16:17.470Z,61.64
2018-03-15T09:17:17.484Z,61.51
2018-03-15T09:18:17.504Z,61.51
2018-03-15T09:19:17.524Z,61.99
2018-03-15T09:20:17.586Z,61.90
2018-03-15T09:21:17.564Z,61.80
2018-03-15T09:22:17.582Z,61.51
2018-03-15T09:23:17.600Z,60.97
2018-03-15T09:24:17.630Z,61.51
2018-03-15T09:25:17.638Z,61.16
2018-03-15T09:26:17.685Z,60.88
2018-03-15T09:27:17.681Z,60.59
2018-03-15T09:28:17.689Z,60.85
2018-03-15T09:29:17.727Z,61.13
2018-03-15T09:30:17.741Z,61.04
2018-03-15T09:31:17.755Z,60.49
2018-03-15T09:32:17.778Z,60.11
2018-03-15T09:33:17.789Z,60.30
2018-03-15T09:34:17.820Z,59.83
2018-03-15T09:35:17.827Z,60.11
2018-03-15T09:36:17.846Z,60.33
2018-03-15T09:37:17.872Z,59.74
2018-03-15T09:38:17.881Z,59.92
2018-03-15T09:39:17.905Z,60.27
2018-03-15T09:40:17.974Z,60.30
2018-03-15T09:41:17.943Z,60.94
2018-03-15T09:42:17.971Z,61.13
2018-03-15T09:43:17.983Z,60.94
2018-03-15T09:44:18.013Z,60.88
2018-03-15T09:45:18.022Z,60.49
2018-03-15T09:46:18.049Z,60.40
2018-03-15T09:47:18.056Z,60.40
2018-03-15T09:48:18.079Z,60.30
2018-03-15T09:49:18.099Z,60.49
2018-03-15T09:50:18.115Z,60.56
2018-03-15T09:51:18.192Z,60.78
2018-03-15T09:52:18.153Z,60.11
2018-03-15T09:53:18.173Z,59.83
2018-03-15T09:54:18.192Z,59.67
2018-03-15T09:55:18.229Z,59.09
2018-03-15T09:56:18.232Z,59.09
2018-03-15T09:57:18.257Z,58.81
2018-03-15T09:58:18.273Z,59.09
2018-03-15T09:59:18.307Z,58.87
2018-03-15T10:00:18.309Z,59.92
2018-03-15T10:01:18.341Z,59.83
2018-03-15T10:02:18.346Z,59.74
2018-03-15T10:03:18.367Z,59.57
2018-03-15T10:04:18.385Z,59.38
2018-03-15T10:05:18.404Z,59.35
2018-03-15T10:06:18.423Z,58.97
2018-03-15T10:07:18.451Z,58.43
2018-03-15T10:08:18.467Z,58.50
2018-03-15T10:09:18.486Z,58.43
2018-03-15T10:10:18.501Z,57.98
2018-03-15T10:11:18.530Z,57.50
2018-03-15T10:12:18.543Z,57.41
2018-03-15T10:13:18.566Z,57.60
2018-03-15T10:14:18.580Z,57.50
2018-03-15T10:15:18.604Z,57.60
2018-03-15T10:16:18.622Z,57.86
2018-03-15T10:17:18.646Z,57.48
2018-03-15T10:18:18.665Z,58.04
2018-03-15T10:19:18.677Z,58.33
2018-03-15T10:20:18.698Z,59.00
2018-03-15T10:21:18.718Z,58.46
2018-03-15T10:22:18.740Z,57.86
2018-03-15T10:23:18.768Z,59.00
2018-03-15T10:24:18.776Z,59.00
2018-03-15T10:25:26.388Z,58.17
2018-03-15T10:26:18.814Z,57.22
2018-03-15T10:27:18.835Z,57.31
2018-03-15T10:28:18.860Z,57.31
2018-03-15T10:29:18.876Z,58.17
2018-03-15T10:30:18.894Z,58.55
2018-03-15T10:31:18.912Z,57.98
2018-03-15T10:32:18.939Z,57.79
2018-03-15T10:33:18.954Z,57.89
2018-03-15T10:34:18.974Z,57.50
2018-03-15T10:35:18.995Z,57.41
2018-03-15T10:36:19.017Z,57.79
2018-03-15T10:37:19.053Z,57.22
2018-03-15T10:38:19.055Z,57.41
2018-03-15T10:39:19.074Z,57.31
2018-03-15T10:40:19.097Z,57.15
2018-03-15T10:41:19.113Z,57.31
2018-03-15T10:42:19.134Z,57.03
2018-03-15T10:43:19.161Z,57.60
2018-03-15T10:44:19.177Z,57.98
2018-03-15T10:45:19.207Z,57.89
2018-03-15T10:46:19.218Z,57.53
2018-03-15T10:47:19.237Z,56.58
2018-03-15T10:48:19.369Z,56.87
2018-03-15T10:49:19.279Z,56.48
2018-03-15T10:50:19.295Z,56.17
2018-03-15T10:51:19.319Z,56.84
2018-03-15T10:52:19.337Z,57.22
2018-03-15T10:53:19.357Z,56.96
2018-03-15T10:54:19.383Z,56.67
2018-03-15T10:55:19.400Z,56.38
2018-03-15T10:56:19.419Z,55.91
2018-03-15T10:57:19.439Z,54.93
2018-03-15T10:58:19.458Z,55.98
2018-03-15T10:59:19.494Z,55.72
2018-03-15T11:00:19.503Z,55.82
2018-03-15T11:01:19.522Z,55.50
2018-03-15T11:02:19.540Z,55.69
2018-03-15T11:03:19.565Z,55.62
2018-03-15T11:04:19.586Z,55.53
2018-03-15T11:05:19.605Z,55.43
2018-03-15T11:06:19.637Z,54.57
2018-03-15T11:07:19.648Z,55.05
2018-03-15T11:08:19.668Z,54.57
2018-03-15T11:09:19.687Z,54.32
2018-03-15T11:10:19.707Z,53.84
2018-03-15T11:11:19.731Z,53.84
2018-03-15T11:12:19.749Z,54.77
2018-03-15T11:13:19.774Z,53.93
2018-03-15T11:14:19.788Z,53.43
2018-03-15T11:15:19.812Z,53.55
2018-03-15T11:16:19.836Z,52.69
2018-03-15T11:17:19.855Z,52.98
2018-03-15T11:18:19.879Z,52.88
2018-03-15T11:19:19.928Z,52.88
2018-03-15T11:20:19.932Z,53.27
2018-03-15T11:21:19.942Z,52.88
2018-03-15T11:22:19.963Z,53.17
2018-03-15T11:23:19.981Z,52.88
2018-03-15T11:24:20.003Z,52.88
2018-03-15T11:25:20.022Z,53.29
2018-03-15T11:26:20.046Z,53.00
2018-03-15T11:27:20.061Z,52.81
2018-03-15T11:28:20.084Z,53.10
2018-03-15T11:29:20.108Z,52.03
2018-03-15T11:30:20.127Z,52.40
2018-03-15T11:31:20.161Z,52.62
2018-03-15T11:32:20.168Z,52.69
2018-03-15T11:33:20.205Z,52.40
2018-03-15T11:34:20.212Z,53.10
2018-03-15T11:35:20.234Z,52.62
2018-03-15T11:36:20.273Z,52.34
2018-03-15T11:37:20.278Z,51.86
2018-03-15T11:38:20.298Z,51.60
2018-03-15T11:39:20.320Z,51.95
2018-03-15T11:40:20.342Z,52.05
2018-03-15T11:41:20.361Z,51.48
2018-03-15T11:42:20.387Z,51.76
2018-03-15T11:43:20.398Z,51.57
2018-03-15T11:44:20.428Z,51.67
2018-03-15T11:45:20.443Z,51.95
2018-03-15T11:46:20.467Z,51.12
2018-03-15T11:47:20.488Z,51.60
2018-03-15T11:48:20.520Z,51.19
2018-03-15T11:49:20.536Z,51.35
2018-03-15T11:50:20.553Z,52.22
2018-03-15T11:51:20.575Z,51.67
2018-03-15T11:52:20.594Z,51.38
2018-03-15T11:53:20.621Z,51.38
2018-03-15T11:54:20.637Z,51.38
2018-03-15T11:55:20.659Z,52.03
2018-03-15T11:56:20.673Z,52.03
2018-03-15T11:57:20.698Z,51.35
2018-03-15T11:58:20.725Z,51.67
2018-03-15T11:59:20.758Z,50.90
2018-03-15T12:00:20.763Z,50.90
2018-03-15T12:01:20.782Z,51.67
2018-03-15T12:02:20.799Z,51.00
2018-03-15T12:03:20.821Z,50.90
2018-03-15T12:04:20.876Z,50.64
2018-03-15T12:05:20.873Z,50.33
2018-03-15T12:06:20.889Z,50.90
2018-03-15T12:07:20.916Z,51.17
2018-03-15T12:08:20.928Z,50.98
2018-03-15T12:09:20.951Z,50.52
2018-03-15T12:10:21.010Z,49.85
2018-03-15T12:11:20.992Z,50.12
2018-03-15T12:12:21.012Z,50.52
2018-03-15T12:13:21.033Z,50.71
2018-03-15T12:14:21.053Z,50.52
2018-03-15T12:15:21.076Z,51.17
2018-03-15T12:16:21.104Z,51.09
2018-03-15T12:17:21.117Z,49.95
2018-03-15T12:18:21.138Z,50.33
2018-03-15T12:19:21.174Z,49.95
2018-03-15T12:20:21.179Z,50.24
2018-03-15T12:21:21.203Z,49.85
2018-03-15T12:22:21.233Z,50.14
2018-03-15T12:23:21.271Z,49.47
2018-03-15T12:24:21.275Z,49.30
2018-03-15T12:25:21.300Z,49.59
2018-03-15T12:26:21.314Z,50.16
2018-03-15T12:27:21.333Z,50.24
2018-03-15T12:28:21.352Z,49.85
2018-03-15T12:29:21.371Z,49.76
2018-03-15T12:30:21.390Z,50.14
2018-03-15T12:31:21.450Z,49.78
2018-03-15T12:32:21.438Z,50.16
2018-03-15T12:33:21.457Z,49.88
2018-03-15T12:34:21.480Z,49.59
2018-03-15T12:35:21.498Z,49.59
2018-03-15T12:36:21.520Z,49.40
2018-03-15T12:37:21.540Z,49.59
2018-03-15T12:38:21.579Z,49.49
2018-03-15T12:39:21.588Z,49.11
2018-03-15T12:40:21.605Z,48.93
2018-03-15T12:41:21.623Z,49.02
2018-03-15T12:42:21.687Z,48.64
2018-03-15T12:43:21.667Z,49.21
2018-03-15T12:44:21.687Z,49.21
2018-03-15T12:45:21.714Z,49.09
2018-03-15T12:46:21.729Z,48.71
2018-03-15T12:47:21.751Z,49.11
2018-03-15T12:48:21.776Z,48.80
2018-03-15T12:49:21.799Z,48.33
2018-03-15T12:50:21.815Z,48.99
2018-03-15T12:51:21.838Z,49.11
2018-03-15T12:52:21.866Z,48.04